This is the latest recevied weather packets stored in our database for station/object F4FSZ-11. If no packets are shown the sender has not sent any weather packets the latest 10 day(s).
| Time | Temp. | Humidity | Pressure | Rain* | Wind** | Luminosity | Snow |
|---|---|---|---|---|---|---|---|
| 1777667610 | 12.78° C | 81% | 1016 hPa | - | - | - | - |
| 1777666710 | 12.78° C | 79% | 1015.9 hPa | - | - | - | - |
| 1777665810 | 13.33° C | 77% | 1015.7 hPa | - | - | - | - |
| 1777664910 | 13.89° C | 76% | 1015.7 hPa | - | - | - | - |
| 1777664010 | 14.44° C | 75% | 1015.7 hPa | - | - | - | - |
| 1777663110 | 15° C | 72% | 1015.5 hPa | - | - | - | - |
| 1777662210 | 16.11° C | 67% | 1015.3 hPa | - | - | - | - |
| 1777661310 | 16.67° C | 67% | 1015.3 hPa | - | - | - | - |
| 1777660410 | 17.78° C | 63% | 1015.2 hPa | - | - | - | - |
| 1777659510 | 21.67° C | 50% | 1015 hPa | - | - | - | - |
| 1777658610 | 24.44° C | 45% | 1014.9 hPa | - | - | - | - |
| 1777657710 | 23.33° C | 46% | 1015 hPa | - | - | - | - |
| 1777656810 | 27.78° C | 36% | 1014.7 hPa | - | - | - | - |
| 1777655909 | 26.11° C | 35% | 1014.9 hPa | - | - | - | - |
| 1777655010 | 24.44° C | 35% | 1014.8 hPa | - | - | - | - |
| 1777654110 | 25° C | 35% | 1014.8 hPa | - | - | - | - |
| 1777653209 | 25.56° C | 31% | 1014.8 hPa | - | - | - | - |
| 1777652309 | 26.67° C | 31% | 1014.9 hPa | - | - | - | - |
| 1777651409 | 27.78° C | 32% | 1015 hPa | - | - | - | - |
| 1777650509 | 25° C | 34% | 1015 hPa | - | - | - | - |
| 1777649609 | 26.67° C | 33% | 1015.2 hPa | - | - | - | - |
| 1777648709 | 26.11° C | 33% | 1015.3 hPa | - | - | - | - |
| 1777647809 | 25° C | 37% | 1015.4 hPa | - | - | - | - |
| 1777646909 | 27.22° C | 31% | 1015.5 hPa | - | - | - | - |
| 1777646009 | 26.67° C | 33% | 1015.5 hPa | - | - | - | - |
* Rain since midnight (hover to see other rain measurements)
** Current wind speed in m/s (hover to see current wind gust speed)